createdAt,value
2023-02-02T00:01:33.587Z,4.07
2023-02-02T00:04:02.486Z,4.08
2023-02-02T00:06:30.648Z,4.09
2023-02-02T00:08:59.232Z,4.09
2023-02-02T00:11:38.117Z,4.07
2023-02-02T00:14:08.378Z,4.03
2023-02-02T00:16:37.695Z,4.02
2023-02-02T00:19:15.279Z,4.01
2023-02-02T00:21:42.787Z,4.04
2023-02-02T00:24:11.464Z,4.04
2023-02-02T00:26:40.020Z,4.04
2023-02-02T00:29:07.956Z,4.01
2023-02-02T00:31:34.888Z,4.00
2023-02-02T00:34:03.219Z,4.01
2023-02-02T00:36:29.736Z,4.02
2023-02-02T00:38:56.219Z,4.05
2023-02-02T00:41:29.257Z,4.04
2023-02-02T00:44:14.677Z,4.05
2023-02-02T00:46:43.497Z,4.03
2023-02-02T00:49:10.511Z,4.04
2023-02-02T00:51:40.281Z,4.03
2023-02-02T00:54:06.902Z,4.01
2023-02-02T00:56:33.636Z,4.00
2023-02-02T00:59:07.826Z,3.98
2023-02-02T01:01:34.489Z,3.98
2023-02-02T01:04:01.572Z,3.98
2023-02-02T01:06:32.944Z,3.98
2023-02-02T01:08:59.410Z,4.00
2023-02-02T01:11:26.000Z,3.99
2023-02-02T01:13:54.396Z,3.96
2023-02-02T01:16:22.781Z,3.94
2023-02-02T01:18:50.470Z,3.94
2023-02-02T01:21:17.430Z,3.92
2023-02-02T01:23:44.041Z,3.90
2023-02-02T01:26:12.143Z,3.90
2023-02-02T01:28:46.203Z,3.89
2023-02-02T01:31:15.504Z,3.87
2023-02-02T01:33:45.279Z,3.88
2023-02-02T01:36:15.279Z,3.87
2023-02-02T01:38:42.465Z,3.86
2023-02-02T01:41:18.420Z,3.86
2023-02-02T01:43:44.855Z,3.87
2023-02-02T01:46:15.350Z,3.88
2023-02-02T01:48:53.209Z,3.88
2023-02-02T01:51:24.176Z,3.88
2023-02-02T01:53:59.939Z,3.88
2023-02-02T01:56:32.763Z,3.88
2023-02-02T01:59:06.778Z,3.91
2023-02-02T02:01:33.425Z,3.91
2023-02-02T02:04:01.927Z,3.91
2023-02-02T02:06:28.695Z,3.89
2023-02-02T02:09:03.515Z,3.90
2023-02-02T02:11:31.823Z,3.90
2023-02-02T02:14:19.819Z,3.89
2023-02-02T02:17:11.409Z,3.86
2023-02-02T02:20:39.119Z,3.84
2023-02-02T02:23:43.470Z,3.83
2023-02-02T02:26:33.740Z,3.83
2023-02-02T02:29:29.105Z,3.81
2023-02-02T02:32:06.113Z,3.79
2023-02-02T02:35:06.334Z,3.78
2023-02-02T02:37:39.116Z,3.78
2023-02-02T02:40:42.749Z,3.77
2023-02-02T02:43:24.429Z,3.76
2023-02-02T02:45:55.475Z,3.75
2023-02-02T02:48:22.715Z,3.74
2023-02-02T02:50:50.127Z,3.74
2023-02-02T02:53:22.315Z,3.74
2023-02-02T02:55:52.038Z,3.74
2023-02-02T02:58:40.217Z,3.74
2023-02-02T03:01:44.182Z,3.75
2023-02-02T03:04:40.664Z,3.74
2023-02-02T03:07:15.440Z,3.73
2023-02-02T03:09:46.296Z,3.73
2023-02-02T03:12:13.383Z,3.74
2023-02-02T03:14:39.863Z,3.75
2023-02-02T03:17:10.848Z,3.74
2023-02-02T03:19:37.378Z,3.76
2023-02-02T03:22:04.135Z,3.75
2023-02-02T03:24:32.596Z,3.77
2023-02-02T03:26:59.134Z,3.78
2023-02-02T03:29:25.675Z,3.78
2023-02-02T03:31:54.468Z,3.81
2023-02-02T03:34:23.221Z,3.79
2023-02-02T03:36:49.717Z,3.78
2023-02-02T03:39:16.414Z,3.79
2023-02-02T03:41:42.906Z,3.79
2023-02-02T03:44:11.768Z,3.80
2023-02-02T03:46:38.536Z,3.79
2023-02-02T03:49:05.023Z,3.80
2023-02-02T03:51:31.491Z,3.81
2023-02-02T03:53:58.141Z,3.83
2023-02-02T03:56:24.898Z,3.86
2023-02-02T03:58:51.467Z,3.86
2023-02-02T04:01:19.798Z,3.87
2023-02-02T04:03:46.404Z,3.89
2023-02-02T04:06:12.890Z,3.88
2023-02-02T04:08:44.595Z,3.90
2023-02-02T04:11:11.361Z,3.91
2023-02-02T04:13:38.157Z,3.92
2023-02-02T04:16:11.567Z,3.91
2023-02-02T04:18:38.484Z,3.91
2023-02-02T04:21:05.504Z,3.91
2023-02-02T04:23:40.820Z,3.91
2023-02-02T04:26:08.105Z,3.90
2023-02-02T04:28:35.345Z,3.88
2023-02-02T04:31:13.436Z,3.89
2023-02-02T04:33:41.199Z,3.87
2023-02-02T04:36:07.873Z,3.89
2023-02-02T04:38:34.635Z,3.86
2023-02-02T04:41:07.078Z,3.85
2023-02-02T04:43:34.819Z,3.83
2023-02-02T04:46:01.708Z,3.84
2023-02-02T04:48:28.237Z,3.84
2023-02-02T04:51:02.806Z,3.83
2023-02-02T04:53:29.956Z,3.82
2023-02-02T04:55:56.727Z,3.82
2023-02-02T04:58:32.081Z,3.82
2023-02-02T05:00:59.692Z,3.81
2023-02-02T05:03:26.184Z,3.81
2023-02-02T05:06:01.714Z,3.81
2023-02-02T05:08:28.555Z,3.78
2023-02-02T05:10:55.379Z,3.82
2023-02-02T05:13:22.005Z,3.81
2023-02-02T05:15:49.040Z,3.82
2023-02-02T05:18:17.779Z,3.83
2023-02-02T05:20:46.373Z,3.82
2023-02-02T05:23:12.903Z,3.82
2023-02-02T05:25:39.371Z,3.82
2023-02-02T05:28:07.808Z,3.84
2023-02-02T05:30:42.082Z,3.82
2023-02-02T05:33:10.524Z,3.83
2023-02-02T05:35:37.271Z,3.83
2023-02-02T05:38:04.015Z,3.83
2023-02-02T05:40:32.405Z,3.85
2023-02-02T05:43:00.918Z,3.89
2023-02-02T05:45:27.655Z,3.91
2023-02-02T05:47:55.837Z,3.92
2023-02-02T05:50:22.604Z,3.93
2023-02-02T05:52:49.650Z,3.94
2023-02-02T05:55:18.153Z,3.93
2023-02-02T05:57:44.734Z,3.96
2023-02-02T06:00:16.584Z,3.98
2023-02-02T06:02:45.279Z,3.97
2023-02-02T06:05:11.967Z,4.00
2023-02-02T06:07:38.536Z,4.02
2023-02-02T06:10:07.494Z,4.02
2023-02-02T06:12:34.255Z,4.02
2023-02-02T06:15:00.744Z,4.05
2023-02-02T06:17:27.776Z,4.05
2023-02-02T06:19:54.260Z,4.06
2023-02-02T06:22:20.763Z,4.07
2023-02-02T06:24:51.711Z,4.14
2023-02-02T06:27:18.253Z,4.17
2023-02-02T06:29:46.731Z,4.18
2023-02-02T06:32:15.477Z,4.17
2023-02-02T06:34:42.087Z,4.18
2023-02-02T06:37:08.622Z,4.19
2023-02-02T06:39:37.365Z,4.21
2023-02-02T06:42:20.099Z,4.21
2023-02-02T06:44:56.260Z,4.20
2023-02-02T06:47:22.782Z,4.20
2023-02-02T06:49:49.308Z,4.20
2023-02-02T06:52:15.939Z,4.18
2023-02-02T06:54:42.464Z,4.21
2023-02-02T06:57:09.586Z,4.24
2023-02-02T06:59:38.360Z,4.24
2023-02-02T07:02:04.903Z,4.25
2023-02-02T07:04:31.522Z,4.25
2023-02-02T07:06:58.280Z,4.29
2023-02-02T07:09:24.781Z,4.28
2023-02-02T07:11:51.266Z,4.32
2023-02-02T07:14:19.501Z,4.32
2023-02-02T07:16:45.972Z,4.28
2023-02-02T07:19:12.448Z,4.32
2023-02-02T07:21:40.816Z,4.32
2023-02-02T07:24:07.850Z,4.35
2023-02-02T07:26:36.173Z,4.38
2023-02-02T07:29:04.721Z,4.39
2023-02-02T07:31:31.397Z,4.40
2023-02-02T07:34:00.918Z,4.40
2023-02-02T07:36:27.592Z,4.41
2023-02-02T07:38:54.753Z,4.40
2023-02-02T07:41:22.150Z,4.38
2023-02-02T07:43:51.538Z,4.36
2023-02-02T07:46:21.102Z,4.38
2023-02-02T07:48:47.670Z,4.39
2023-02-02T07:51:16.858Z,4.38
2023-02-02T07:53:46.743Z,4.39
2023-02-02T07:56:22.465Z,4.38
2023-02-02T07:58:50.660Z,4.37
2023-02-02T08:01:17.233Z,4.38
2023-02-02T08:03:44.729Z,4.41
2023-02-02T08:06:21.604Z,4.44
2023-02-02T08:08:50.681Z,4.45
2023-02-02T08:11:19.703Z,4.43
2023-02-02T08:13:49.954Z,4.41
2023-02-02T08:16:18.545Z,4.42
2023-02-02T08:18:45.360Z,4.41
2023-02-02T08:21:12.245Z,4.41
2023-02-02T08:23:44.176Z,4.42
2023-02-02T08:26:12.049Z,4.41
2023-02-02T08:28:40.275Z,4.41
2023-02-02T08:31:13.415Z,4.42
2023-02-02T08:33:40.105Z,4.44
2023-02-02T08:36:13.906Z,4.46
2023-02-02T08:38:43.352Z,4.46
2023-02-02T08:41:13.239Z,4.47
2023-02-02T08:43:40.518Z,4.50
2023-02-02T08:46:11.205Z,4.44
2023-02-02T08:48:38.498Z,4.40
2023-02-02T08:51:06.402Z,4.34
2023-02-02T08:53:38.139Z,4.29
2023-02-02T08:56:07.597Z,4.26
2023-02-02T08:58:40.121Z,4.23
2023-02-02T09:01:07.724Z,4.23
2023-02-02T09:03:34.943Z,4.22
2023-02-02T09:06:09.765Z,4.20
2023-02-02T09:08:36.876Z,4.21
2023-02-02T09:11:20.212Z,4.20
2023-02-02T09:13:51.709Z,4.20
2023-02-02T09:16:21.042Z,4.20
2023-02-02T09:18:49.717Z,4.21
2023-02-02T09:21:19.286Z,4.22
2023-02-02T09:23:47.576Z,4.25
2023-02-02T09:26:38.975Z,4.28
2023-02-02T09:29:11.496Z,4.32
2023-02-02T09:31:38.246Z,4.34
2023-02-02T09:34:08.675Z,4.36
2023-02-02T09:36:35.877Z,4.41
2023-02-02T09:39:03.241Z,4.45
2023-02-02T09:41:35.931Z,4.49
2023-02-02T09:44:22.584Z,4.54
2023-02-02T09:47:04.112Z,4.59
2023-02-02T09:49:56.673Z,4.62
2023-02-02T09:52:34.145Z,4.64
2023-02-02T09:55:25.087Z,4.70
2023-02-02T09:58:16.764Z,4.73
2023-02-02T10:00:54.266Z,4.77
2023-02-02T10:03:40.779Z,4.83
2023-02-02T10:06:31.012Z,4.87
2023-02-02T10:09:06.879Z,4.95
2023-02-02T10:11:36.165Z,4.99
2023-02-02T10:14:09.801Z,5.02
2023-02-02T10:16:39.727Z,5.06
2023-02-02T10:19:11.079Z,5.06
2023-02-02T10:22:03.829Z,5.06
2023-02-02T10:24:32.018Z,5.07
2023-02-02T10:27:04.476Z,5.08
2023-02-02T10:29:48.201Z,5.03
2023-02-02T10:32:34.143Z,4.99
2023-02-02T10:35:31.207Z,4.99
2023-02-02T10:38:15.468Z,5.00
2023-02-02T10:40:58.496Z,5.05
2023-02-02T10:43:46.266Z,5.03
2023-02-02T10:46:17.360Z,5.03
2023-02-02T10:48:47.125Z,5.06
2023-02-02T10:51:29.978Z,5.05
2023-02-02T10:54:05.090Z,5.03
2023-02-02T10:56:40.466Z,5.04
2023-02-02T10:59:17.949Z,5.07
2023-02-02T11:01:47.311Z,5.07
2023-02-02T11:04:32.995Z,5.08
2023-02-02T11:07:06.032Z,5.07
2023-02-02T11:09:39.519Z,5.08
2023-02-02T11:12:34.175Z,5.14
2023-02-02T11:15:05.246Z,5.16
2023-02-02T11:17:33.308Z,5.23
2023-02-02T11:20:00.253Z,5.25
2023-02-02T11:22:38.581Z,5.34
2023-02-02T11:25:10.275Z,5.43
2023-02-02T11:27:42.577Z,5.51
2023-02-02T11:30:27.791Z,5.58
2023-02-02T11:32:55.746Z,5.68
2023-02-02T11:35:27.298Z,5.79
2023-02-02T11:37:57.764Z,5.93
2023-02-02T11:40:45.244Z,5.94
2023-02-02T11:43:22.556Z,6.01
2023-02-02T11:46:02.601Z,6.14
2023-02-02T11:48:39.886Z,6.19
2023-02-02T11:51:07.767Z,6.27
2023-02-02T11:53:46.639Z,6.36
2023-02-02T11:56:27.327Z,6.37
2023-02-02T11:58:56.699Z,6.34
2023-02-02T12:01:25.003Z,6.25
2023-02-02T12:03:53.966Z,6.44
2023-02-02T12:06:24.829Z,6.50
2023-02-02T12:08:56.987Z,6.57
2023-02-02T12:11:37.332Z,6.32
2023-02-02T12:14:16.241Z,6.15
2023-02-02T12:16:59.295Z,6.05
2023-02-02T12:19:41.438Z,6.27
2023-02-02T12:22:23.019Z,6.43
2023-02-02T12:24:55.460Z,6.50
2023-02-02T12:27:29.567Z,6.38
2023-02-02T12:30:11.377Z,6.29
2023-02-02T12:32:51.197Z,6.22
2023-02-02T12:35:45.249Z,6.28
2023-02-02T12:38:43.216Z,6.27
2023-02-02T12:41:15.771Z,6.31
2023-02-02T12:43:46.113Z,6.26
2023-02-02T12:46:38.998Z,6.20
2023-02-02T12:49:49.528Z,6.08
2023-02-02T12:52:53.364Z,5.97
2023-02-02T12:55:38.172Z,5.94
2023-02-02T12:58:35.315Z,5.90
2023-02-02T13:01:19.363Z,5.88
2023-02-02T13:04:14.881Z,5.79
2023-02-02T13:07:09.817Z,5.69
2023-02-02T13:09:51.520Z,5.42
2023-02-02T13:12:29.701Z,5.32
2023-02-02T13:15:01.015Z,5.16
2023-02-02T13:17:38.865Z,5.04
2023-02-02T13:20:29.641Z,5.03
2023-02-02T13:23:05.155Z,4.95
2023-02-02T13:25:37.332Z,4.95
2023-02-02T13:28:07.363Z,5.00
2023-02-02T13:30:47.148Z,5.03
2023-02-02T13:33:23.951Z,5.05
2023-02-02T13:36:02.303Z,5.09
2023-02-02T13:38:30.696Z,5.12
2023-02-02T13:41:05.707Z,5.12
2023-02-02T13:43:54.677Z,5.14
2023-02-02T13:46:27.552Z,5.18
2023-02-02T13:49:15.527Z,5.21
2023-02-02T13:52:04.908Z,5.25
2023-02-02T13:54:40.605Z,5.29
2023-02-02T13:57:06.982Z,5.30
2023-02-02T13:59:51.346Z,5.35
2023-02-02T14:02:26.580Z,5.40
2023-02-02T14:04:59.380Z,5.47
2023-02-02T14:07:47.048Z,5.52
2023-02-02T14:10:33.728Z,5.58
2023-02-02T14:13:32.491Z,5.58
2023-02-02T14:16:02.184Z,5.59
2023-02-02T14:18:50.828Z,5.61
2023-02-02T14:21:32.793Z,5.65
2023-02-02T14:24:20.482Z,5.68
2023-02-02T14:26:49.995Z,5.69
2023-02-02T14:29:31.816Z,5.71
2023-02-02T14:32:04.543Z,5.74
2023-02-02T14:34:41.839Z,5.79
2023-02-02T14:37:22.458Z,5.86
2023-02-02T14:40:18.397Z,5.91
2023-02-02T14:43:38.416Z,5.88
2023-02-02T14:46:14.221Z,5.84
2023-02-02T14:49:09.361Z,5.82
2023-02-02T14:51:49.256Z,5.79
2023-02-02T14:54:38.760Z,5.80
2023-02-02T14:57:19.771Z,5.77
2023-02-02T14:59:47.387Z,5.75
2023-02-02T15:02:13.819Z,5.74
2023-02-02T15:04:44.517Z,5.72
2023-02-02T15:07:31.171Z,5.68
2023-02-02T15:09:58.207Z,5.66
2023-02-02T15:12:46.843Z,5.65
2023-02-02T15:15:29.771Z,5.64
2023-02-02T15:18:16.497Z,5.66
2023-02-02T15:20:49.833Z,5.68
2023-02-02T15:23:41.525Z,5.65
2023-02-02T15:26:25.012Z,5.63
2023-02-02T15:28:56.306Z,5.63
2023-02-02T15:31:32.346Z,5.63
2023-02-02T15:34:02.619Z,5.62
2023-02-02T15:36:33.947Z,5.60
2023-02-02T15:39:24.336Z,5.60
2023-02-02T15:42:12.407Z,5.58
2023-02-02T15:44:39.105Z,5.54
2023-02-02T15:47:13.025Z,5.54
2023-02-02T15:49:41.616Z,5.52
2023-02-02T15:52:39.073Z,5.49
2023-02-02T15:55:22.340Z,5.48
2023-02-02T15:57:49.888Z,5.50
2023-02-02T16:00:41.333Z,5.54
2023-02-02T16:03:18.803Z,5.54
2023-02-02T16:05:52.136Z,5.56
2023-02-02T16:08:24.826Z,5.59
2023-02-02T16:11:02.884Z,5.57
2023-02-02T16:13:30.153Z,5.58
2023-02-02T16:16:01.822Z,5.58
2023-02-02T16:18:36.187Z,5.58
2023-02-02T16:21:14.779Z,5.57
2023-02-02T16:23:48.009Z,5.57
2023-02-02T16:26:17.635Z,5.54
2023-02-02T16:28:46.614Z,5.51
2023-02-02T16:31:16.336Z,5.49
2023-02-02T16:33:44.665Z,5.56
2023-02-02T16:36:25.534Z,5.55
2023-02-02T16:38:53.995Z,5.59
2023-02-02T16:41:28.531Z,5.58
2023-02-02T16:43:55.453Z,5.60
2023-02-02T16:46:45.219Z,5.61
2023-02-02T16:49:22.786Z,5.63
2023-02-02T16:52:16.675Z,5.64
2023-02-02T16:54:52.209Z,5.73
2023-02-02T16:57:24.684Z,5.71
2023-02-02T16:59:54.262Z,5.68
2023-02-02T17:02:35.621Z,5.63
2023-02-02T17:05:24.844Z,5.62
2023-02-02T17:08:00.466Z,5.59
2023-02-02T17:10:40.023Z,5.60
2023-02-02T17:13:40.189Z,5.54
2023-02-02T17:16:07.384Z,5.54
2023-02-02T17:18:36.555Z,5.54
2023-02-02T17:21:11.940Z,5.53
2023-02-02T17:23:39.540Z,5.53
2023-02-02T17:26:08.804Z,5.49
2023-02-02T17:28:39.149Z,5.54
2023-02-02T17:31:12.013Z,5.58
2023-02-02T17:33:39.389Z,5.56
2023-02-02T17:36:10.645Z,5.53
2023-02-02T17:38:37.862Z,5.52
2023-02-02T17:41:04.791Z,5.48
2023-02-02T17:43:32.363Z,5.45
2023-02-02T17:45:59.126Z,5.43
2023-02-02T17:48:25.791Z,5.43
2023-02-02T17:50:52.500Z,5.45
2023-02-02T17:53:21.519Z,5.47
2023-02-02T17:55:51.587Z,5.43
2023-02-02T17:58:20.433Z,5.41
2023-02-02T18:00:55.543Z,5.40
2023-02-02T18:03:26.602Z,5.42
2023-02-02T18:05:53.175Z,5.44
2023-02-02T18:08:20.013Z,5.42
2023-02-02T18:10:48.285Z,5.42
2023-02-02T18:13:19.381Z,5.38
2023-02-02T18:15:46.156Z,5.30
2023-02-02T18:18:14.463Z,5.25
2023-02-02T18:20:42.495Z,5.24
2023-02-02T18:23:09.405Z,5.22
2023-02-02T18:25:42.737Z,5.20
2023-02-02T18:28:10.848Z,5.25
2023-02-02T18:30:40.932Z,5.22
2023-02-02T18:33:09.510Z,5.25
2023-02-02T18:35:42.910Z,5.25
2023-02-02T18:38:12.511Z,5.24
2023-02-02T18:40:39.009Z,5.23
2023-02-02T18:43:07.811Z,5.24
2023-02-02T18:45:36.175Z,5.23
2023-02-02T18:48:02.707Z,5.24
2023-02-02T18:50:29.288Z,5.23
2023-02-02T18:52:57.018Z,5.22
2023-02-02T18:55:26.188Z,5.21
2023-02-02T18:57:52.904Z,5.21
2023-02-02T19:00:21.696Z,5.21
2023-02-02T19:02:48.287Z,5.18
2023-02-02T19:05:34.792Z,5.22
2023-02-02T19:08:04.004Z,5.20
2023-02-02T19:10:31.117Z,5.15
2023-02-02T19:13:09.888Z,5.14
2023-02-02T19:15:42.246Z,5.09
2023-02-02T19:18:18.047Z,5.12
2023-02-02T19:20:45.428Z,5.09
2023-02-02T19:23:16.134Z,5.07
2023-02-02T19:25:49.471Z,5.09
2023-02-02T19:28:29.072Z,5.05
2023-02-02T19:31:00.391Z,5.02
2023-02-02T19:33:37.767Z,5.00
2023-02-02T19:36:07.439Z,4.97
2023-02-02T19:38:36.218Z,4.92
2023-02-02T19:41:02.721Z,4.92
2023-02-02T19:43:32.219Z,4.91
2023-02-02T19:46:00.103Z,4.89
2023-02-02T19:48:31.148Z,4.87
2023-02-02T19:50:59.187Z,4.87
2023-02-02T19:53:38.937Z,4.87
2023-02-02T19:56:24.732Z,4.84
2023-02-02T19:58:54.529Z,4.85
2023-02-02T20:01:23.832Z,4.86
2023-02-02T20:03:51.211Z,4.85
2023-02-02T20:06:23.998Z,4.87
2023-02-02T20:08:50.660Z,4.90
2023-02-02T20:11:34.165Z,4.89
2023-02-02T20:14:03.098Z,4.87
2023-02-02T20:16:44.991Z,4.85
2023-02-02T20:19:19.181Z,4.83
2023-02-02T20:21:48.504Z,4.86
2023-02-02T20:24:17.356Z,4.88
2023-02-02T20:26:44.432Z,4.89
2023-02-02T20:29:18.224Z,4.89
2023-02-02T20:31:46.341Z,4.86
2023-02-02T20:34:28.345Z,4.86
2023-02-02T20:37:14.042Z,4.86
2023-02-02T20:40:02.371Z,4.86
2023-02-02T20:42:30.091Z,4.87
2023-02-02T20:44:58.332Z,4.84
2023-02-02T20:47:24.973Z,4.83
2023-02-02T20:49:51.629Z,4.78
2023-02-02T20:52:23.594Z,4.72
2023-02-02T20:54:51.641Z,4.67
2023-02-02T20:57:18.520Z,4.60
2023-02-02T20:59:45.056Z,4.60
2023-02-02T21:02:20.807Z,4.57
2023-02-02T21:04:48.056Z,4.51
2023-02-02T21:07:17.140Z,4.52
2023-02-02T21:09:44.842Z,4.48
2023-02-02T21:12:12.017Z,4.50
2023-02-02T21:14:39.074Z,4.50
2023-02-02T21:17:14.933Z,4.49
2023-02-02T21:19:42.248Z,4.46
2023-02-02T21:22:08.796Z,4.45
2023-02-02T21:24:35.310Z,4.44
2023-02-02T21:27:03.424Z,4.41
2023-02-02T21:29:31.768Z,4.39
2023-02-02T21:32:01.635Z,4.38
2023-02-02T21:34:29.331Z,4.38
2023-02-02T21:36:58.221Z,4.35
2023-02-02T21:39:43.373Z,4.33
2023-02-02T21:42:09.902Z,4.32
2023-02-02T21:44:52.200Z,4.26
2023-02-02T21:47:29.443Z,4.23
2023-02-02T21:50:01.844Z,4.23
2023-02-02T21:52:33.307Z,4.20
2023-02-02T21:55:17.028Z,4.19
2023-02-02T21:57:43.893Z,4.22
2023-02-02T22:00:31.082Z,4.23
2023-02-02T22:02:59.051Z,4.17
2023-02-02T22:05:40.881Z,4.14
2023-02-02T22:08:20.892Z,4.12
2023-02-02T22:10:47.956Z,4.09
2023-02-02T22:13:17.857Z,4.10
2023-02-02T22:15:47.346Z,4.07
2023-02-02T22:18:17.831Z,4.03
2023-02-02T22:20:47.171Z,4.02
2023-02-02T22:23:22.286Z,4.00
2023-02-02T22:25:53.171Z,4.02
2023-02-02T22:28:23.888Z,4.03
2023-02-02T22:30:55.291Z,4.01
2023-02-02T22:33:23.162Z,4.02
2023-02-02T22:35:49.927Z,4.02
2023-02-02T22:38:19.320Z,3.96
2023-02-02T22:40:46.559Z,3.94
2023-02-02T22:43:18.426Z,3.91
2023-02-02T22:45:45.767Z,3.89
2023-02-02T22:48:14.064Z,3.90
2023-02-02T22:50:45.564Z,3.86
2023-02-02T22:53:14.054Z,3.82
2023-02-02T22:55:43.510Z,3.78
2023-02-02T22:58:11.830Z,3.72
2023-02-02T23:00:38.383Z,3.67
2023-02-02T23:03:04.924Z,3.61
2023-02-02T23:05:33.335Z,3.59
2023-02-02T23:08:00.013Z,3.53
2023-02-02T23:10:29.542Z,3.50
2023-02-02T23:12:58.794Z,3.40
2023-02-02T23:15:26.277Z,3.38
2023-02-02T23:17:54.836Z,3.34
2023-02-02T23:20:21.906Z,3.32
2023-02-02T23:22:48.668Z,3.23
2023-02-02T23:25:16.260Z,3.12
2023-02-02T23:27:46.672Z,3.02
2023-02-02T23:30:14.239Z,2.95
2023-02-02T23:32:41.610Z,2.89
2023-02-02T23:35:10.780Z,2.85
2023-02-02T23:37:37.667Z,2.80
2023-02-02T23:40:04.909Z,2.78
2023-02-02T23:42:31.852Z,2.73
2023-02-02T23:44:58.317Z,2.72
2023-02-02T23:47:25.005Z,2.67
2023-02-02T23:49:51.670Z,2.61
2023-02-02T23:52:21.664Z,2.59
2023-02-02T23:54:48.253Z,2.55
2023-02-02T23:57:16.813Z,2.50
2023-02-02T23:59:43.327Z,2.49
